sensor_id;sensor_type;location;lat;lon;timestamp;temperature;humidity
26081;DHT22;13991;51.174;4.438;2022-10-30T00:00:36;17.70;99.90
26081;DHT22;13991;51.174;4.438;2022-10-30T00:03:02;17.70;99.90
26081;DHT22;13991;51.174;4.438;2022-10-30T00:05:28;17.60;99.90
26081;DHT22;13991;51.174;4.438;2022-10-30T00:07:54;17.60;99.90
26081;DHT22;13991;51.174;4.438;2022-10-30T00:10:21;17.60;99.90
26081;DHT22;13991;51.174;4.438;2022-10-30T00:12:46;17.50;99.90
26081;DHT22;13991;51.174;4.438;2022-10-30T00:15:12;17.50;99.90
26081;DHT22;13991;51.174;4.438;2022-10-30T00:17:38;17.40;99.90
26081;DHT22;13991;51.174;4.438;2022-10-30T00:20:04;17.50;99.90
26081;DHT22;13991;51.174;4.438;2022-10-30T00:22:30;17.40;99.90
26081;DHT22;13991;51.174;4.438;2022-10-30T00:24:56;17.40;99.90
26081;DHT22;13991;51.174;4.438;2022-10-30T00:27:22;17.40;99.90
26081;DHT22;13991;51.174;4.438;2022-10-30T00:29:47;17.30;99.90
26081;DHT22;13991;51.174;4.438;2022-10-30T00:32:13;17.40;99.90
26081;DHT22;13991;51.174;4.438;2022-10-30T00:34:39;17.40;99.90
26081;DHT22;13991;51.174;4.438;2022-10-30T00:37:04;17.40;99.90
26081;DHT22;13991;51.174;4.438;2022-10-30T00:39:30;17.40;99.90
26081;DHT22;13991;51.174;4.438;2022-10-30T00:41:56;17.30;99.90
26081;DHT22;13991;51.174;4.438;2022-10-30T00:47:10;17.30;99.90
26081;DHT22;13991;51.174;4.438;2022-10-30T00:49:44;17.20;99.90
26081;DHT22;13991;51.174;4.438;2022-10-30T00:52:12;17.20;99.90
26081;DHT22;13991;51.174;4.438;2022-10-30T00:54:38;17.20;99.90
26081;DHT22;13991;51.174;4.438;2022-10-30T00:57:05;17.20;99.90
26081;DHT22;13991;51.174;4.438;2022-10-30T00:59:34;17.20;99.90
26081;DHT22;13991;51.174;4.438;2022-10-30T01:02:02;17.20;99.90
26081;DHT22;13991;51.174;4.438;2022-10-30T01:04:30;17.10;99.90
26081;DHT22;13991;51.174;4.438;2022-10-30T01:06:59;16.90;99.90
26081;DHT22;13991;51.174;4.438;2022-10-30T01:09:30;16.80;99.90
26081;DHT22;13991;51.174;4.438;2022-10-30T01:11:55;16.80;99.90
26081;DHT22;13991;51.174;4.438;2022-10-30T01:14:22;16.70;99.90
26081;DHT22;13991;51.174;4.438;2022-10-30T01:22:45;16.90;99.90
26081;DHT22;13991;51.174;4.438;2022-10-30T01:35:46;17.00;99.90
26081;DHT22;13991;51.174;4.438;2022-10-30T01:38:22;16.90;99.90
26081;DHT22;13991;51.174;4.438;2022-10-30T01:40:49;16.90;99.90
26081;DHT22;13991;51.174;4.438;2022-10-30T01:43:15;16.80;99.90
26081;DHT22;13991;51.174;4.438;2022-10-30T01:51:11;16.90;99.90
26081;DHT22;13991;51.174;4.438;2022-10-30T01:56:32;16.90;99.90
26081;DHT22;13991;51.174;4.438;2022-10-30T02:01:36;16.90;99.90
26081;DHT22;13991;51.174;4.438;2022-10-30T02:04:03;16.90;99.90
26081;DHT22;13991;51.174;4.438;2022-10-30T02:06:29;17.00;99.90
26081;DHT22;13991;51.174;4.438;2022-10-30T02:08:55;17.00;99.90
26081;DHT22;13991;51.174;4.438;2022-10-30T02:11:22;17.00;99.90
26081;DHT22;13991;51.174;4.438;2022-10-30T02:13:50;17.00;99.90
26081;DHT22;13991;51.174;4.438;2022-10-30T02:16:17;17.00;99.90
26081;DHT22;13991;51.174;4.438;2022-10-30T02:18:42;17.00;99.90
26081;DHT22;13991;51.174;4.438;2022-10-30T02:21:08;17.00;99.90
26081;DHT22;13991;51.174;4.438;2022-10-30T02:23:34;16.90;99.90
26081;DHT22;13991;51.174;4.438;2022-10-30T02:26:00;17.00;99.90
26081;DHT22;13991;51.174;4.438;2022-10-30T02:28:25;17.00;99.90
26081;DHT22;13991;51.174;4.438;2022-10-30T02:30:51;16.90;99.90
26081;DHT22;13991;51.174;4.438;2022-10-30T02:33:17;17.00;99.90
26081;DHT22;13991;51.174;4.438;2022-10-30T02:35:42;17.00;99.90
26081;DHT22;13991;51.174;4.438;2022-10-30T02:38:08;17.00;99.90
26081;DHT22;13991;51.174;4.438;2022-10-30T02:40:34;17.00;99.90
26081;DHT22;13991;51.174;4.438;2022-10-30T02:42:59;17.00;99.90
26081;DHT22;13991;51.174;4.438;2022-10-30T02:45:25;16.90;99.90
26081;DHT22;13991;51.174;4.438;2022-10-30T02:47:51;16.90;99.90
26081;DHT22;13991;51.174;4.438;2022-10-30T02:50:17;16.90;99.90
26081;DHT22;13991;51.174;4.438;2022-10-30T02:52:42;16.90;99.90
26081;DHT22;13991;51.174;4.438;2022-10-30T02:55:08;16.90;99.90
26081;DHT22;13991;51.174;4.438;2022-10-30T02:57:34;16.90;99.90
26081;DHT22;13991;51.174;4.438;2022-10-30T02:59:59;16.80;99.90
26081;DHT22;13991;51.174;4.438;2022-10-30T03:02:26;16.80;99.90
26081;DHT22;13991;51.174;4.438;2022-10-30T03:04:51;16.80;99.90
26081;DHT22;13991;51.174;4.438;2022-10-30T03:07:17;16.70;99.90
26081;DHT22;13991;51.174;4.438;2022-10-30T03:09:43;16.70;99.90
26081;DHT22;13991;51.174;4.438;2022-10-30T03:12:08;16.70;99.90
26081;DHT22;13991;51.174;4.438;2022-10-30T03:14:34;16.70;99.90
26081;DHT22;13991;51.174;4.438;2022-10-30T03:17:00;16.80;99.90
26081;DHT22;13991;51.174;4.438;2022-10-30T03:19:25;16.70;99.90
26081;DHT22;13991;51.174;4.438;2022-10-30T03:21:52;16.70;99.90
26081;DHT22;13991;51.174;4.438;2022-10-30T03:24:18;16.80;99.90
26081;DHT22;13991;51.174;4.438;2022-10-30T03:26:44;16.70;99.90
26081;DHT22;13991;51.174;4.438;2022-10-30T03:29:09;16.70;99.90
26081;DHT22;13991;51.174;4.438;2022-10-30T03:31:35;16.60;99.90
26081;DHT22;13991;51.174;4.438;2022-10-30T03:34:01;16.60;99.90
26081;DHT22;13991;51.174;4.438;2022-10-30T03:36:26;16.60;99.90
26081;DHT22;13991;51.174;4.438;2022-10-30T03:38:52;16.60;99.90
26081;DHT22;13991;51.174;4.438;2022-10-30T03:41:18;16.70;99.90
26081;DHT22;13991;51.174;4.438;2022-10-30T03:43:44;16.60;99.90
26081;DHT22;13991;51.174;4.438;2022-10-30T03:46:09;16.60;99.90
26081;DHT22;13991;51.174;4.438;2022-10-30T03:48:36;16.60;99.90
26081;DHT22;13991;51.174;4.438;2022-10-30T03:51:01;16.60;99.90
26081;DHT22;13991;51.174;4.438;2022-10-30T03:53:28;16.60;99.90
26081;DHT22;13991;51.174;4.438;2022-10-30T03:56:01;16.60;99.90
26081;DHT22;13991;51.174;4.438;2022-10-30T03:58:28;16.60;99.90
26081;DHT22;13991;51.174;4.438;2022-10-30T04:00:59;16.60;99.90
26081;DHT22;13991;51.174;4.438;2022-10-30T04:03:26;16.60;99.90
26081;DHT22;13991;51.174;4.438;2022-10-30T04:05:52;16.60;99.90
26081;DHT22;13991;51.174;4.438;2022-10-30T04:08:18;16.60;99.90
26081;DHT22;13991;51.174;4.438;2022-10-30T04:10:44;16.60;99.90
26081;DHT22;13991;51.174;4.438;2022-10-30T04:13:12;16.50;99.90
26081;DHT22;13991;51.174;4.438;2022-10-30T04:15:38;16.60;99.90
26081;DHT22;13991;51.174;4.438;2022-10-30T04:18:03;16.60;99.90
26081;DHT22;13991;51.174;4.438;2022-10-30T04:20:30;16.50;99.90
26081;DHT22;13991;51.174;4.438;2022-10-30T04:23:01;16.30;99.90
26081;DHT22;13991;51.174;4.438;2022-10-30T04:25:28;16.20;99.90
26081;DHT22;13991;51.174;4.438;2022-10-30T04:27:54;16.20;99.90
26081;DHT22;13991;51.174;4.438;2022-10-30T04:30:20;16.30;99.90
26081;DHT22;13991;51.174;4.438;2022-10-30T04:32:54;16.30;99.90
26081;DHT22;13991;51.174;4.438;2022-10-30T04:35:22;16.40;99.90
26081;DHT22;13991;51.174;4.438;2022-10-30T04:37:56;16.40;99.90
26081;DHT22;13991;51.174;4.438;2022-10-30T04:40:24;16.40;99.90
26081;DHT22;13991;51.174;4.438;2022-10-30T04:42:50;16.30;99.90
26081;DHT22;13991;51.174;4.438;2022-10-30T04:45:16;16.30;99.90
26081;DHT22;13991;51.174;4.438;2022-10-30T04:47:42;16.30;99.90
26081;DHT22;13991;51.174;4.438;2022-10-30T04:50:08;16.20;99.90
26081;DHT22;13991;51.174;4.438;2022-10-30T04:52:34;16.10;99.90
26081;DHT22;13991;51.174;4.438;2022-10-30T04:55:00;16.10;99.90
26081;DHT22;13991;51.174;4.438;2022-10-30T04:57:26;16.00;99.90
26081;DHT22;13991;51.174;4.438;2022-10-30T04:59:51;16.10;99.90
26081;DHT22;13991;51.174;4.438;2022-10-30T05:02:17;16.10;99.90
26081;DHT22;13991;51.174;4.438;2022-10-30T05:04:44;16.10;99.90
26081;DHT22;13991;51.174;4.438;2022-10-30T05:07:11;16.10;99.90
26081;DHT22;13991;51.174;4.438;2022-10-30T05:09:36;15.90;99.90
26081;DHT22;13991;51.174;4.438;2022-10-30T05:12:02;15.90;99.90
26081;DHT22;13991;51.174;4.438;2022-10-30T05:14:29;16.00;99.90
26081;DHT22;13991;51.174;4.438;2022-10-30T05:16:55;16.00;99.90
26081;DHT22;13991;51.174;4.438;2022-10-30T05:19:21;16.00;99.90
26081;DHT22;13991;51.174;4.438;2022-10-30T05:21:47;15.90;99.90
26081;DHT22;13991;51.174;4.438;2022-10-30T05:24:12;15.90;99.90
26081;DHT22;13991;51.174;4.438;2022-10-30T05:26:38;15.80;99.90
26081;DHT22;13991;51.174;4.438;2022-10-30T05:29:03;15.80;99.90
26081;DHT22;13991;51.174;4.438;2022-10-30T05:31:29;15.80;99.90
26081;DHT22;13991;51.174;4.438;2022-10-30T05:33:55;15.80;99.90
26081;DHT22;13991;51.174;4.438;2022-10-30T05:36:20;15.70;99.90
26081;DHT22;13991;51.174;4.438;2022-10-30T05:38:46;15.70;99.90
26081;DHT22;13991;51.174;4.438;2022-10-30T05:41:12;15.80;99.90
26081;DHT22;13991;51.174;4.438;2022-10-30T05:43:37;15.80;99.90
26081;DHT22;13991;51.174;4.438;2022-10-30T05:46:03;15.80;99.90
26081;DHT22;13991;51.174;4.438;2022-10-30T05:48:29;15.70;99.90
26081;DHT22;13991;51.174;4.438;2022-10-30T05:50:55;15.70;99.90
26081;DHT22;13991;51.174;4.438;2022-10-30T05:53:21;15.70;99.90
26081;DHT22;13991;51.174;4.438;2022-10-30T05:55:50;15.70;99.90
26081;DHT22;13991;51.174;4.438;2022-10-30T05:58:16;15.60;99.90
26081;DHT22;13991;51.174;4.438;2022-10-30T06:00:42;15.70;99.90
26081;DHT22;13991;51.174;4.438;2022-10-30T06:03:12;15.60;99.90
26081;DHT22;13991;51.174;4.438;2022-10-30T06:05:38;15.70;99.90
26081;DHT22;13991;51.174;4.438;2022-10-30T06:08:06;15.70;99.90
26081;DHT22;13991;51.174;4.438;2022-10-30T06:10:32;15.60;99.90
26081;DHT22;13991;51.174;4.438;2022-10-30T06:13:00;15.60;99.90
26081;DHT22;13991;51.174;4.438;2022-10-30T06:15:27;15.60;99.90
26081;DHT22;13991;51.174;4.438;2022-10-30T06:17:53;15.60;99.90
26081;DHT22;13991;51.174;4.438;2022-10-30T06:20:24;15.60;99.90
26081;DHT22;13991;51.174;4.438;2022-10-30T06:22:57;15.60;99.90
26081;DHT22;13991;51.174;4.438;2022-10-30T06:25:24;15.60;99.90
26081;DHT22;13991;51.174;4.438;2022-10-30T06:27:50;15.60;99.90
26081;DHT22;13991;51.174;4.438;2022-10-30T06:30:16;15.60;99.90
26081;DHT22;13991;51.174;4.438;2022-10-30T06:32:42;15.60;99.90
26081;DHT22;13991;51.174;4.438;2022-10-30T06:35:08;15.50;99.90
26081;DHT22;13991;51.174;4.438;2022-10-30T06:37:34;15.50;99.90
26081;DHT22;13991;51.174;4.438;2022-10-30T06:40:00;15.60;99.90
26081;DHT22;13991;51.174;4.438;2022-10-30T06:42:25;15.60;99.90
26081;DHT22;13991;51.174;4.438;2022-10-30T06:44:51;15.60;99.90
26081;DHT22;13991;51.174;4.438;2022-10-30T06:47:17;15.60;99.90
26081;DHT22;13991;51.174;4.438;2022-10-30T06:49:43;15.60;99.90
26081;DHT22;13991;51.174;4.438;2022-10-30T06:52:09;15.60;99.90
26081;DHT22;13991;51.174;4.438;2022-10-30T06:54:38;15.70;99.90
26081;DHT22;13991;51.174;4.438;2022-10-30T06:57:03;15.60;99.90
26081;DHT22;13991;51.174;4.438;2022-10-30T06:59:29;15.50;99.90
26081;DHT22;13991;51.174;4.438;2022-10-30T07:01:55;15.50;99.90
26081;DHT22;13991;51.174;4.438;2022-10-30T07:04:21;15.50;99.90
26081;DHT22;13991;51.174;4.438;2022-10-30T07:06:47;15.60;99.90
26081;DHT22;13991;51.174;4.438;2022-10-30T07:09:13;15.60;99.90
26081;DHT22;13991;51.174;4.438;2022-10-30T07:11:38;15.60;99.90
26081;DHT22;13991;51.174;4.438;2022-10-30T07:14:13;15.60;99.90
26081;DHT22;13991;51.174;4.438;2022-10-30T07:16:39;15.80;99.90
26081;DHT22;13991;51.174;4.438;2022-10-30T07:19:05;15.60;99.90
26081;DHT22;13991;51.174;4.438;2022-10-30T07:21:30;15.50;99.90
26081;DHT22;13991;51.174;4.438;2022-10-30T07:23:56;15.50;99.90
26081;DHT22;13991;51.174;4.438;2022-10-30T07:26:22;15.50;99.90
26081;DHT22;13991;51.174;4.438;2022-10-30T07:28:47;15.60;99.90
26081;DHT22;13991;51.174;4.438;2022-10-30T07:31:13;15.80;99.90
26081;DHT22;13991;51.174;4.438;2022-10-30T07:33:39;15.90;99.90
26081;DHT22;13991;51.174;4.438;2022-10-30T07:36:05;15.90;99.90
26081;DHT22;13991;51.174;4.438;2022-10-30T07:38:31;16.00;99.90
26081;DHT22;13991;51.174;4.438;2022-10-30T07:40:57;16.10;99.90
26081;DHT22;13991;51.174;4.438;2022-10-30T07:43:23;16.10;99.90
26081;DHT22;13991;51.174;4.438;2022-10-30T07:45:49;16.20;99.90
26081;DHT22;13991;51.174;4.438;2022-10-30T07:48:14;16.30;99.90
26081;DHT22;13991;51.174;4.438;2022-10-30T07:50:41;16.30;99.90
26081;DHT22;13991;51.174;4.438;2022-10-30T07:53:06;16.30;99.90
26081;DHT22;13991;51.174;4.438;2022-10-30T07:55:32;16.30;99.90
26081;DHT22;13991;51.174;4.438;2022-10-30T07:57:58;16.30;99.90
26081;DHT22;13991;51.174;4.438;2022-10-30T08:00:23;16.30;99.90
26081;DHT22;13991;51.174;4.438;2022-10-30T08:02:50;16.40;99.90
26081;DHT22;13991;51.174;4.438;2022-10-30T08:05:16;16.50;99.90
26081;DHT22;13991;51.174;4.438;2022-10-30T08:07:45;16.60;99.90
26081;DHT22;13991;51.174;4.438;2022-10-30T08:10:11;16.70;99.90
26081;DHT22;13991;51.174;4.438;2022-10-30T08:12:37;16.80;99.90
26081;DHT22;13991;51.174;4.438;2022-10-30T08:15:05;16.80;99.90
26081;DHT22;13991;51.174;4.438;2022-10-30T08:17:31;16.90;99.90
26081;DHT22;13991;51.174;4.438;2022-10-30T08:19:57;17.00;99.90
26081;DHT22;13991;51.174;4.438;2022-10-30T08:22:23;17.00;99.90
26081;DHT22;13991;51.174;4.438;2022-10-30T08:24:51;17.00;99.90
26081;DHT22;13991;51.174;4.438;2022-10-30T08:27:17;17.10;99.90
26081;DHT22;13991;51.174;4.438;2022-10-30T08:29:42;17.20;99.90
26081;DHT22;13991;51.174;4.438;2022-10-30T08:32:08;17.30;99.90
26081;DHT22;13991;51.174;4.438;2022-10-30T08:34:34;17.30;99.90
26081;DHT22;13991;51.174;4.438;2022-10-30T08:37:00;17.40;99.90
26081;DHT22;13991;51.174;4.438;2022-10-30T08:39:25;17.50;99.90
26081;DHT22;13991;51.174;4.438;2022-10-30T08:41:51;17.50;99.90
26081;DHT22;13991;51.174;4.438;2022-10-30T08:44:17;17.60;99.90
26081;DHT22;13991;51.174;4.438;2022-10-30T08:46:43;17.60;99.90
26081;DHT22;13991;51.174;4.438;2022-10-30T08:49:08;17.70;99.90
26081;DHT22;13991;51.174;4.438;2022-10-30T08:51:34;17.80;99.90
26081;DHT22;13991;51.174;4.438;2022-10-30T08:54:00;17.90;99.90
26081;DHT22;13991;51.174;4.438;2022-10-30T08:56:26;17.90;99.90
26081;DHT22;13991;51.174;4.438;2022-10-30T08:58:52;18.00;99.90
26081;DHT22;13991;51.174;4.438;2022-10-30T09:01:18;18.00;99.90
26081;DHT22;13991;51.174;4.438;2022-10-30T09:03:44;18.10;99.90
26081;DHT22;13991;51.174;4.438;2022-10-30T09:06:10;18.30;99.90
26081;DHT22;13991;51.174;4.438;2022-10-30T09:08:36;18.30;99.90
26081;DHT22;13991;51.174;4.438;2022-10-30T09:11:02;18.20;99.90
26081;DHT22;13991;51.174;4.438;2022-10-30T09:13:28;18.30;99.90
26081;DHT22;13991;51.174;4.438;2022-10-30T09:15:58;18.50;99.90
26081;DHT22;13991;51.174;4.438;2022-10-30T09:18:24;18.60;99.90
26081;DHT22;13991;51.174;4.438;2022-10-30T09:20:50;18.80;99.90
26081;DHT22;13991;51.174;4.438;2022-10-30T09:23:15;18.90;99.90
26081;DHT22;13991;51.174;4.438;2022-10-30T09:25:41;19.00;99.90
26081;DHT22;13991;51.174;4.438;2022-10-30T09:28:07;19.00;99.90
26081;DHT22;13991;51.174;4.438;2022-10-30T09:30:32;19.00;99.90
26081;DHT22;13991;51.174;4.438;2022-10-30T09:33:00;19.00;99.90
26081;DHT22;13991;51.174;4.438;2022-10-30T09:35:29;18.90;99.90
26081;DHT22;13991;51.174;4.438;2022-10-30T09:37:55;19.00;99.90
26081;DHT22;13991;51.174;4.438;2022-10-30T09:40:37;19.20;99.90
26081;DHT22;13991;51.174;4.438;2022-10-30T10:04:43;20.10;99.90
26081;DHT22;13991;51.174;4.438;2022-10-30T10:07:35;19.80;99.90
26081;DHT22;13991;51.174;4.438;2022-10-30T10:10:44;20.10;99.90
26081;DHT22;13991;51.174;4.438;2022-10-30T10:16:24;20.50;99.90
26081;DHT22;13991;51.174;4.438;2022-10-30T10:21:48;20.40;99.90
26081;DHT22;13991;51.174;4.438;2022-10-30T10:24:21;20.40;99.90
26081;DHT22;13991;51.174;4.438;2022-10-30T10:26:49;20.50;99.90
26081;DHT22;13991;51.174;4.438;2022-10-30T10:29:49;20.60;99.90
26081;DHT22;13991;51.174;4.438;2022-10-30T10:38:32;20.80;99.90
26081;DHT22;13991;51.174;4.438;2022-10-30T10:41:46;20.60;99.90
26081;DHT22;13991;51.174;4.438;2022-10-30T10:44:32;20.60;99.90
26081;DHT22;13991;51.174;4.438;2022-10-30T10:52:37;20.50;99.90
26081;DHT22;13991;51.174;4.438;2022-10-30T10:55:13;20.60;99.90
26081;DHT22;13991;51.174;4.438;2022-10-30T10:57:41;20.50;99.90
26081;DHT22;13991;51.174;4.438;2022-10-30T11:00:19;20.70;99.90
26081;DHT22;13991;51.174;4.438;2022-10-30T11:03:10;20.60;99.90
26081;DHT22;13991;51.174;4.438;2022-10-30T11:05:53;20.70;99.90
26081;DHT22;13991;51.174;4.438;2022-10-30T11:08:28;20.80;99.90
26081;DHT22;13991;51.174;4.438;2022-10-30T11:11:00;20.80;99.90
26081;DHT22;13991;51.174;4.438;2022-10-30T11:13:36;20.90;99.90
26081;DHT22;13991;51.174;4.438;2022-10-30T11:16:25;20.90;99.90
26081;DHT22;13991;51.174;4.438;2022-10-30T11:18:59;21.00;99.90
26081;DHT22;13991;51.174;4.438;2022-10-30T11:21:26;21.00;99.90
26081;DHT22;13991;51.174;4.438;2022-10-30T11:52:18;21.30;99.90
26081;DHT22;13991;51.174;4.438;2022-10-30T11:54:51;21.20;99.90
26081;DHT22;13991;51.174;4.438;2022-10-30T11:59:46;21.10;99.90
26081;DHT22;13991;51.174;4.438;2022-10-30T12:02:24;21.10;99.90
26081;DHT22;13991;51.174;4.438;2022-10-30T12:07:31;21.20;99.90
26081;DHT22;13991;51.174;4.438;2022-10-30T12:09:57;21.30;99.90
26081;DHT22;13991;51.174;4.438;2022-10-30T12:12:32;21.30;99.90
26081;DHT22;13991;51.174;4.438;2022-10-30T12:17:40;21.40;99.90
26081;DHT22;13991;51.174;4.438;2022-10-30T12:20:07;21.30;99.90
26081;DHT22;13991;51.174;4.438;2022-10-30T12:22:38;21.40;99.90
26081;DHT22;13991;51.174;4.438;2022-10-30T12:27:49;21.40;99.90
26081;DHT22;13991;51.174;4.438;2022-10-30T12:30:17;21.50;99.90
26081;DHT22;13991;51.174;4.438;2022-10-30T12:32:49;21.50;99.90
26081;DHT22;13991;51.174;4.438;2022-10-30T12:35:45;21.50;99.90
26081;DHT22;13991;51.174;4.438;2022-10-30T12:41:29;21.50;99.90
26081;DHT22;13991;51.174;4.438;2022-10-30T12:47:25;21.60;99.90
26081;DHT22;13991;51.174;4.438;2022-10-30T12:50:25;21.60;99.90
26081;DHT22;13991;51.174;4.438;2022-10-30T12:52:59;21.60;99.90
26081;DHT22;13991;51.174;4.438;2022-10-30T12:55:33;21.60;99.90
26081;DHT22;13991;51.174;4.438;2022-10-30T12:58:52;21.70;99.90
26081;DHT22;13991;51.174;4.438;2022-10-30T13:06:33;22.00;99.90
26081;DHT22;13991;51.174;4.438;2022-10-30T13:09:25;22.10;99.90
26081;DHT22;13991;51.174;4.438;2022-10-30T13:14:33;22.10;99.90
26081;DHT22;13991;51.174;4.438;2022-10-30T13:17:00;22.20;99.90
26081;DHT22;13991;51.174;4.438;2022-10-30T13:19:26;22.20;99.90
26081;DHT22;13991;51.174;4.438;2022-10-30T13:21:59;22.40;99.90
26081;DHT22;13991;51.174;4.438;2022-10-30T13:27:20;22.50;99.90
26081;DHT22;13991;51.174;4.438;2022-10-30T13:46:54;21.70;99.90
26081;DHT22;13991;51.174;4.438;2022-10-30T13:50:18;21.60;99.90
26081;DHT22;13991;51.174;4.438;2022-10-30T13:52:19;21.50;99.90
26081;DHT22;13991;51.174;4.438;2022-10-30T13:57:38;21.80;99.90
26081;DHT22;13991;51.174;4.438;2022-10-30T14:00:20;21.80;99.90
26081;DHT22;13991;51.174;4.438;2022-10-30T14:03:00;21.80;99.90
26081;DHT22;13991;51.174;4.438;2022-10-30T14:09:32;21.70;99.90
26081;DHT22;13991;51.174;4.438;2022-10-30T14:11:38;21.80;99.90
26081;DHT22;13991;51.174;4.438;2022-10-30T14:16:45;21.50;99.90
26081;DHT22;13991;51.174;4.438;2022-10-30T14:19:15;21.50;99.90
26081;DHT22;13991;51.174;4.438;2022-10-30T14:21:50;21.40;99.90
26081;DHT22;13991;51.174;4.438;2022-10-30T14:24:31;21.30;99.90
26081;DHT22;13991;51.174;4.438;2022-10-30T14:32:46;21.30;99.90
26081;DHT22;13991;51.174;4.438;2022-10-30T14:40:40;21.00;99.90
26081;DHT22;13991;51.174;4.438;2022-10-30T14:43:18;21.10;99.90
26081;DHT22;13991;51.174;4.438;2022-10-30T14:45:51;21.10;99.90
26081;DHT22;13991;51.174;4.438;2022-10-30T14:51:29;21.10;99.90
26081;DHT22;13991;51.174;4.438;2022-10-30T14:54:23;21.00;99.90
26081;DHT22;13991;51.174;4.438;2022-10-30T14:56:52;20.90;99.90
26081;DHT22;13991;51.174;4.438;2022-10-30T14:59:19;20.70;99.90
26081;DHT22;13991;51.174;4.438;2022-10-30T15:05:02;20.40;99.90
26081;DHT22;13991;51.174;4.438;2022-10-30T15:07:42;20.30;99.90
26081;DHT22;13991;51.174;4.438;2022-10-30T15:10:16;20.30;99.90
26081;DHT22;13991;51.174;4.438;2022-10-30T15:13:04;20.30;99.90
26081;DHT22;13991;51.174;4.438;2022-10-30T15:15:30;20.20;99.90
26081;DHT22;13991;51.174;4.438;2022-10-30T15:18:00;20.10;99.90
26081;DHT22;13991;51.174;4.438;2022-10-30T15:20:31;19.90;99.90
26081;DHT22;13991;51.174;4.438;2022-10-30T15:23:09;19.50;99.90
26081;DHT22;13991;51.174;4.438;2022-10-30T15:25:44;19.40;99.90
26081;DHT22;13991;51.174;4.438;2022-10-30T15:28:15;19.30;99.90
26081;DHT22;13991;51.174;4.438;2022-10-30T15:31:02;19.20;99.90
26081;DHT22;13991;51.174;4.438;2022-10-30T15:33:28;18.90;99.90
26081;DHT22;13991;51.174;4.438;2022-10-30T15:36:00;18.70;99.90
26081;DHT22;13991;51.174;4.438;2022-10-30T15:38:26;18.70;99.90
26081;DHT22;13991;51.174;4.438;2022-10-30T15:41:01;18.70;99.90
26081;DHT22;13991;51.174;4.438;2022-10-30T15:43:31;18.60;99.90
26081;DHT22;13991;51.174;4.438;2022-10-30T15:45:58;18.60;99.90
26081;DHT22;13991;51.174;4.438;2022-10-30T15:48:32;18.60;99.90
26081;DHT22;13991;51.174;4.438;2022-10-30T15:51:03;18.70;99.90
26081;DHT22;13991;51.174;4.438;2022-10-30T15:53:55;18.70;99.90
26081;DHT22;13991;51.174;4.438;2022-10-30T15:58:59;18.50;99.90
26081;DHT22;13991;51.174;4.438;2022-10-30T16:03:56;18.40;99.90
26081;DHT22;13991;51.174;4.438;2022-10-30T16:06:25;18.40;99.90
26081;DHT22;13991;51.174;4.438;2022-10-30T16:08:51;18.30;99.90
26081;DHT22;13991;51.174;4.438;2022-10-30T16:11:17;18.30;99.90
26081;DHT22;13991;51.174;4.438;2022-10-30T16:13:45;18.30;99.90
26081;DHT22;13991;51.174;4.438;2022-10-30T16:16:16;18.40;99.90
26081;DHT22;13991;51.174;4.438;2022-10-30T16:18:43;18.40;99.90
26081;DHT22;13991;51.174;4.438;2022-10-30T16:21:13;18.60;99.90
26081;DHT22;13991;51.174;4.438;2022-10-30T16:23:46;18.60;99.90
26081;DHT22;13991;51.174;4.438;2022-10-30T16:26:28;18.60;99.90
26081;DHT22;13991;51.174;4.438;2022-10-30T16:28:55;18.60;99.90
26081;DHT22;13991;51.174;4.438;2022-10-30T16:31:22;18.60;99.90
26081;DHT22;13991;51.174;4.438;2022-10-30T16:33:49;18.60;99.90
26081;DHT22;13991;51.174;4.438;2022-10-30T16:36:17;18.60;99.90
26081;DHT22;13991;51.174;4.438;2022-10-30T16:38:46;18.60;99.90
26081;DHT22;13991;51.174;4.438;2022-10-30T16:41:13;18.70;99.90
26081;DHT22;13991;51.174;4.438;2022-10-30T16:43:41;18.60;99.90
26081;DHT22;13991;51.174;4.438;2022-10-30T16:48:54;18.60;99.90
26081;DHT22;13991;51.174;4.438;2022-10-30T16:51:21;18.50;99.90
26081;DHT22;13991;51.174;4.438;2022-10-30T16:53:49;18.40;99.90
26081;DHT22;13991;51.174;4.438;2022-10-30T16:56:40;18.40;99.90
26081;DHT22;13991;51.174;4.438;2022-10-30T17:00:10;18.20;99.90
26081;DHT22;13991;51.174;4.438;2022-10-30T17:40:37;17.90;99.90
26081;DHT22;13991;51.174;4.438;2022-10-30T18:14:10;17.50;99.90
26081;DHT22;13991;51.174;4.438;2022-10-30T23:55:09;15.80;99.90
